sensor_id;sensor_type;location;lat;lon;timestamp;P1;durP1;ratioP1;P2;durP2;ratioP2
11222;SDS011;5668;52.012;8.724;2023-07-28T00:02:17;3.17;;;2.92;;
11222;SDS011;5668;52.012;8.724;2023-07-28T00:04:44;3.17;;;2.97;;
11222;SDS011;5668;52.012;8.724;2023-07-28T00:07:12;3.35;;;3.05;;
11222;SDS011;5668;52.012;8.724;2023-07-28T00:09:39;3.30;;;3.10;;
11222;SDS011;5668;52.012;8.724;2023-07-28T00:12:08;3.63;;;3.30;;
11222;SDS011;5668;52.012;8.724;2023-07-28T00:14:35;3.72;;;3.42;;
11222;SDS011;5668;52.012;8.724;2023-07-28T00:17:02;3.80;;;3.50;;
11222;SDS011;5668;52.012;8.724;2023-07-28T00:19:29;3.78;;;3.58;;
11222;SDS011;5668;52.012;8.724;2023-07-28T00:21:56;3.83;;;3.53;;
11222;SDS011;5668;52.012;8.724;2023-07-28T00:24:24;3.50;;;3.20;;
11222;SDS011;5668;52.012;8.724;2023-07-28T00:26:51;3.63;;;3.35;;
11222;SDS011;5668;52.012;8.724;2023-07-28T00:29:19;3.58;;;3.28;;
11222;SDS011;5668;52.012;8.724;2023-07-28T00:31:46;3.25;;;3.03;;
11222;SDS011;5668;52.012;8.724;2023-07-28T00:34:14;3.28;;;3.08;;
11222;SDS011;5668;52.012;8.724;2023-07-28T00:36:41;3.72;;;3.42;;
11222;SDS011;5668;52.012;8.724;2023-07-28T00:39:08;3.17;;;2.88;;
11222;SDS011;5668;52.012;8.724;2023-07-28T00:41:35;3.30;;;3.10;;
11222;SDS011;5668;52.012;8.724;2023-07-28T00:44:03;3.40;;;3.20;;
11222;SDS011;5668;52.012;8.724;2023-07-28T00:46:31;3.58;;;3.28;;
11222;SDS011;5668;52.012;8.724;2023-07-28T00:48:58;4.00;;;3.70;;
11222;SDS011;5668;52.012;8.724;2023-07-28T00:51:26;4.20;;;3.90;;
11222;SDS011;5668;52.012;8.724;2023-07-28T00:53:53;4.22;;;3.92;;
11222;SDS011;5668;52.012;8.724;2023-07-28T00:56:21;4.50;;;4.10;;
11222;SDS011;5668;52.012;8.724;2023-07-28T00:58:49;4.43;;;4.03;;
11222;SDS011;5668;52.012;8.724;2023-07-28T01:01:16;4.95;;;4.57;;
11222;SDS011;5668;52.012;8.724;2023-07-28T01:03:45;5.28;;;4.80;;
11222;SDS011;5668;52.012;8.724;2023-07-28T01:06:14;5.10;;;4.80;;
11222;SDS011;5668;52.012;8.724;2023-07-28T01:08:47;5.70;;;5.20;;
11222;SDS011;5668;52.012;8.724;2023-07-28T01:11:22;5.85;;;5.35;;
11222;SDS011;5668;52.012;8.724;2023-07-28T01:13:50;6.00;;;5.60;;
11222;SDS011;5668;52.012;8.724;2023-07-28T01:16:17;6.20;;;5.63;;
11222;SDS011;5668;52.012;8.724;2023-07-28T01:18:46;6.10;;;5.70;;
11222;SDS011;5668;52.012;8.724;2023-07-28T01:21:13;6.47;;;5.88;;
11222;SDS011;5668;52.012;8.724;2023-07-28T01:23:48;6.10;;;5.65;;
11222;SDS011;5668;52.012;8.724;2023-07-28T01:26:28;6.60;;;6.03;;
11222;SDS011;5668;52.012;8.724;2023-07-28T01:28:59;6.15;;;5.75;;
11222;SDS011;5668;52.012;8.724;2023-07-28T01:31:27;6.95;;;6.40;;
11222;SDS011;5668;52.012;8.724;2023-07-28T01:33:54;6.40;;;5.93;;
11222;SDS011;5668;52.012;8.724;2023-07-28T01:36:22;7.40;;;6.82;;
11222;SDS011;5668;52.012;8.724;2023-07-28T01:38:49;7.22;;;6.70;;
11222;SDS011;5668;52.012;8.724;2023-07-28T01:41:16;7.53;;;6.93;;
11222;SDS011;5668;52.012;8.724;2023-07-28T01:43:45;7.35;;;6.70;;
11222;SDS011;5668;52.012;8.724;2023-07-28T01:46:12;6.90;;;6.35;;
11222;SDS011;5668;52.012;8.724;2023-07-28T01:48:39;8.00;;;7.30;;
11222;SDS011;5668;52.012;8.724;2023-07-28T01:51:06;7.22;;;6.63;;
11222;SDS011;5668;52.012;8.724;2023-07-28T01:53:34;6.85;;;6.20;;
11222;SDS011;5668;52.012;8.724;2023-07-28T01:56:01;6.60;;;6.10;;
11222;SDS011;5668;52.012;8.724;2023-07-28T01:58:28;6.30;;;5.75;;
11222;SDS011;5668;52.012;8.724;2023-07-28T02:00:57;6.22;;;5.82;;
11222;SDS011;5668;52.012;8.724;2023-07-28T02:03:24;5.82;;;5.43;;
11222;SDS011;5668;52.012;8.724;2023-07-28T02:05:51;6.03;;;5.63;;
11222;SDS011;5668;52.012;8.724;2023-07-28T02:08:18;5.50;;;5.00;;
11222;SDS011;5668;52.012;8.724;2023-07-28T02:10:45;4.82;;;4.45;;
11222;SDS011;5668;52.012;8.724;2023-07-28T02:13:13;4.68;;;4.13;;
11222;SDS011;5668;52.012;8.724;2023-07-28T02:15:40;5.18;;;4.70;;
11222;SDS011;5668;52.012;8.724;2023-07-28T02:18:08;4.30;;;4.00;;
11222;SDS011;5668;52.012;8.724;2023-07-28T02:20:35;4.35;;;3.95;;
11222;SDS011;5668;52.012;8.724;2023-07-28T02:23:04;4.10;;;3.80;;
11222;SDS011;5668;52.012;8.724;2023-07-28T02:25:31;5.65;;;3.45;;
11222;SDS011;5668;52.012;8.724;2023-07-28T02:27:58;3.60;;;3.30;;
11222;SDS011;5668;52.012;8.724;2023-07-28T02:30:25;3.45;;;3.15;;
11222;SDS011;5668;52.012;8.724;2023-07-28T02:32:52;2.90;;;2.70;;
11222;SDS011;5668;52.012;8.724;2023-07-28T02:35:21;3.55;;;2.78;;
11222;SDS011;5668;52.012;8.724;2023-07-28T02:37:48;2.55;;;2.35;;
11222;SDS011;5668;52.012;8.724;2023-07-28T02:40:16;2.95;;;2.50;;
11222;SDS011;5668;52.012;8.724;2023-07-28T02:42:46;2.78;;;2.58;;
11222;SDS011;5668;52.012;8.724;2023-07-28T02:45:13;3.97;;;2.88;;
11222;SDS011;5668;52.012;8.724;2023-07-28T02:47:41;2.40;;;2.20;;
11222;SDS011;5668;52.012;8.724;2023-07-28T02:50:09;2.42;;;2.30;;
11222;SDS011;5668;52.012;8.724;2023-07-28T02:52:39;2.75;;;2.55;;
11222;SDS011;5668;52.012;8.724;2023-07-28T02:55:06;3.00;;;2.80;;
11222;SDS011;5668;52.012;8.724;2023-07-28T02:57:34;3.30;;;3.10;;
11222;SDS011;5668;52.012;8.724;2023-07-28T03:00:01;3.50;;;3.30;;
11222;SDS011;5668;52.012;8.724;2023-07-28T03:02:46;3.95;;;3.30;;
11222;SDS011;5668;52.012;8.724;2023-07-28T03:05:13;3.25;;;3.05;;
11222;SDS011;5668;52.012;8.724;2023-07-28T03:07:42;3.90;;;3.60;;
11222;SDS011;5668;52.012;8.724;2023-07-28T03:10:12;5.10;;;4.53;;
11222;SDS011;5668;52.012;8.724;2023-07-28T03:12:41;5.90;;;5.40;;
11222;SDS011;5668;52.012;8.724;2023-07-28T03:15:08;6.32;;;5.72;;
11222;SDS011;5668;52.012;8.724;2023-07-28T03:17:36;6.05;;;5.65;;
11222;SDS011;5668;52.012;8.724;2023-07-28T03:20:03;6.60;;;6.00;;
11222;SDS011;5668;52.012;8.724;2023-07-28T03:22:32;6.18;;;5.78;;
11222;SDS011;5668;52.012;8.724;2023-07-28T03:25:01;6.78;;;6.28;;
11222;SDS011;5668;52.012;8.724;2023-07-28T03:27:28;7.00;;;6.50;;
11222;SDS011;5668;52.012;8.724;2023-07-28T03:29:55;7.15;;;6.65;;
11222;SDS011;5668;52.012;8.724;2023-07-28T03:32:22;7.35;;;6.80;;
11222;SDS011;5668;52.012;8.724;2023-07-28T03:34:50;7.80;;;7.30;;
11222;SDS011;5668;52.012;8.724;2023-07-28T03:37:17;7.25;;;6.65;;
11222;SDS011;5668;52.012;8.724;2023-07-28T03:39:44;6.50;;;6.00;;
11222;SDS011;5668;52.012;8.724;2023-07-28T03:42:13;6.47;;;5.97;;
11222;SDS011;5668;52.012;8.724;2023-07-28T03:44:41;6.80;;;5.30;;
11222;SDS011;5668;52.012;8.724;2023-07-28T03:47:08;5.80;;;5.30;;
11222;SDS011;5668;52.012;8.724;2023-07-28T03:49:35;5.72;;;4.50;;
11222;SDS011;5668;52.012;8.724;2023-07-28T03:52:02;4.25;;;3.95;;
11222;SDS011;5668;52.012;8.724;2023-07-28T03:54:30;4.43;;;3.75;;
11222;SDS011;5668;52.012;8.724;2023-07-28T03:56:57;4.93;;;3.60;;
11222;SDS011;5668;52.012;8.724;2023-07-28T03:59:26;3.67;;;3.47;;
11222;SDS011;5668;52.012;8.724;2023-07-28T04:01:53;3.92;;;3.70;;
11222;SDS011;5668;52.012;8.724;2023-07-28T04:04:20;4.70;;;4.03;;
11222;SDS011;5668;52.012;8.724;2023-07-28T04:06:48;4.20;;;3.90;;
11222;SDS011;5668;52.012;8.724;2023-07-28T04:09:15;5.82;;;4.30;;
11222;SDS011;5668;52.012;8.724;2023-07-28T04:11:43;5.13;;;4.22;;
11222;SDS011;5668;52.012;8.724;2023-07-28T04:14:10;5.70;;;4.75;;
11222;SDS011;5668;52.012;8.724;2023-07-28T04:16:39;5.57;;;5.07;;
11222;SDS011;5668;52.012;8.724;2023-07-28T04:19:06;4.95;;;4.65;;
11222;SDS011;5668;52.012;8.724;2023-07-28T04:21:34;5.75;;;5.18;;
11222;SDS011;5668;52.012;8.724;2023-07-28T04:24:04;6.15;;;5.65;;
11222;SDS011;5668;52.012;8.724;2023-07-28T04:26:32;6.95;;;6.45;;
11222;SDS011;5668;52.012;8.724;2023-07-28T04:28:59;7.70;;;7.00;;
11222;SDS011;5668;52.012;8.724;2023-07-28T04:31:26;8.02;;;7.43;;
11222;SDS011;5668;52.012;8.724;2023-07-28T04:33:55;8.43;;;7.63;;
11222;SDS011;5668;52.012;8.724;2023-07-28T04:36:22;8.02;;;7.40;;
11222;SDS011;5668;52.012;8.724;2023-07-28T04:38:49;8.88;;;7.55;;
11222;SDS011;5668;52.012;8.724;2023-07-28T04:41:16;7.53;;;6.93;;
11222;SDS011;5668;52.012;8.724;2023-07-28T04:43:43;8.40;;;7.70;;
11222;SDS011;5668;52.012;8.724;2023-07-28T04:46:11;7.95;;;7.35;;
11222;SDS011;5668;52.012;8.724;2023-07-28T04:48:38;8.75;;;8.00;;
11222;SDS011;5668;52.012;8.724;2023-07-28T04:51:06;8.07;;;7.28;;
11222;SDS011;5668;52.012;8.724;2023-07-28T04:53:33;7.10;;;6.60;;
11222;SDS011;5668;52.012;8.724;2023-07-28T04:56:01;7.35;;;6.85;;
11222;SDS011;5668;52.012;8.724;2023-07-28T04:58:28;7.68;;;7.07;;
11222;SDS011;5668;52.012;8.724;2023-07-28T05:00:55;7.68;;;7.00;;
11222;SDS011;5668;52.012;8.724;2023-07-28T05:03:23;7.70;;;7.10;;
11222;SDS011;5668;52.012;8.724;2023-07-28T05:05:50;7.72;;;7.20;;
11222;SDS011;5668;52.012;8.724;2023-07-28T05:08:18;7.13;;;6.55;;
11222;SDS011;5668;52.012;8.724;2023-07-28T05:10:46;7.25;;;6.63;;
11222;SDS011;5668;52.012;8.724;2023-07-28T05:13:13;7.40;;;6.80;;
11222;SDS011;5668;52.012;8.724;2023-07-28T05:15:40;7.50;;;7.00;;
11222;SDS011;5668;52.012;8.724;2023-07-28T05:18:07;7.90;;;7.20;;
11222;SDS011;5668;52.012;8.724;2023-07-28T05:20:34;8.60;;;7.90;;
11222;SDS011;5668;52.012;8.724;2023-07-28T05:23:02;8.63;;;8.02;;
11222;SDS011;5668;52.012;8.724;2023-07-28T05:25:30;8.68;;;7.97;;
11222;SDS011;5668;52.012;8.724;2023-07-28T05:27:57;9.60;;;8.15;;
11222;SDS011;5668;52.012;8.724;2023-07-28T05:30:25;9.10;;;8.30;;
11222;SDS011;5668;52.012;8.724;2023-07-28T05:32:53;8.70;;;7.90;;
11222;SDS011;5668;52.012;8.724;2023-07-28T05:35:20;8.70;;;8.00;;
11222;SDS011;5668;52.012;8.724;2023-07-28T05:37:47;8.02;;;7.43;;
11222;SDS011;5668;52.012;8.724;2023-07-28T05:40:15;8.40;;;7.80;;
11222;SDS011;5668;52.012;8.724;2023-07-28T05:42:44;8.32;;;7.65;;
11222;SDS011;5668;52.012;8.724;2023-07-28T05:45:11;7.47;;;6.88;;
11222;SDS011;5668;52.012;8.724;2023-07-28T05:47:38;8.18;;;7.40;;
11222;SDS011;5668;52.012;8.724;2023-07-28T05:50:06;8.68;;;7.80;;
11222;SDS011;5668;52.012;8.724;2023-07-28T05:52:35;8.98;;;8.20;;
11222;SDS011;5668;52.012;8.724;2023-07-28T05:55:03;8.80;;;8.18;;
11222;SDS011;5668;52.012;8.724;2023-07-28T05:57:31;9.02;;;8.32;;
11222;SDS011;5668;52.012;8.724;2023-07-28T05:59:59;9.32;;;8.50;;
11222;SDS011;5668;52.012;8.724;2023-07-28T06:02:27;8.43;;;7.75;;
11222;SDS011;5668;52.012;8.724;2023-07-28T06:04:54;9.05;;;8.35;;
11222;SDS011;5668;52.012;8.724;2023-07-28T06:07:21;9.75;;;8.80;;
11222;SDS011;5668;52.012;8.724;2023-07-28T06:09:48;9.27;;;8.38;;
11222;SDS011;5668;52.012;8.724;2023-07-28T06:12:16;9.68;;;8.98;;
11222;SDS011;5668;52.012;8.724;2023-07-28T06:14:43;9.48;;;8.68;;
11222;SDS011;5668;52.012;8.724;2023-07-28T06:17:11;9.95;;;9.25;;
11222;SDS011;5668;52.012;8.724;2023-07-28T06:19:38;9.02;;;8.32;;
11222;SDS011;5668;52.012;8.724;2023-07-28T06:22:06;9.20;;;8.50;;
11222;SDS011;5668;52.012;8.724;2023-07-28T06:24:33;10.05;;;9.05;;
11222;SDS011;5668;52.012;8.724;2023-07-28T06:27:00;10.10;;;9.30;;
11222;SDS011;5668;52.012;8.724;2023-07-28T06:29:32;9.77;;;8.98;;
11222;SDS011;5668;52.012;8.724;2023-07-28T06:31:59;9.95;;;9.15;;
11222;SDS011;5668;52.012;8.724;2023-07-28T06:34:28;10.80;;;9.90;;
11222;SDS011;5668;52.012;8.724;2023-07-28T06:36:55;11.70;;;9.95;;
11222;SDS011;5668;52.012;8.724;2023-07-28T06:39:22;10.30;;;9.50;;
11222;SDS011;5668;52.012;8.724;2023-07-28T06:41:50;10.98;;;9.98;;
11222;SDS011;5668;52.012;8.724;2023-07-28T06:44:17;10.30;;;9.50;;
11222;SDS011;5668;52.012;8.724;2023-07-28T06:46:44;10.02;;;9.23;;
11222;SDS011;5668;52.012;8.724;2023-07-28T06:49:12;10.80;;;9.90;;
11222;SDS011;5668;52.012;8.724;2023-07-28T06:51:41;10.70;;;9.82;;
11222;SDS011;5668;52.012;8.724;2023-07-28T06:54:08;10.73;;;9.93;;
11222;SDS011;5668;52.012;8.724;2023-07-28T06:56:37;10.85;;;9.95;;
11222;SDS011;5668;52.012;8.724;2023-07-28T06:59:04;10.38;;;9.48;;
11222;SDS011;5668;52.012;8.724;2023-07-28T07:01:32;10.68;;;9.88;;
11222;SDS011;5668;52.012;8.724;2023-07-28T07:03:59;11.10;;;10.07;;
11222;SDS011;5668;52.012;8.724;2023-07-28T07:06:27;10.88;;;9.98;;
11222;SDS011;5668;52.012;8.724;2023-07-28T07:08:55;11.13;;;10.23;;
11222;SDS011;5668;52.012;8.724;2023-07-28T07:11:22;9.88;;;9.15;;
11222;SDS011;5668;52.012;8.724;2023-07-28T07:13:50;11.10;;;10.15;;
11222;SDS011;5668;52.012;8.724;2023-07-28T07:16:17;10.80;;;9.80;;
11222;SDS011;5668;52.012;8.724;2023-07-28T07:18:44;11.02;;;10.02;;
11222;SDS011;5668;52.012;8.724;2023-07-28T07:21:11;11.48;;;10.57;;
11222;SDS011;5668;52.012;8.724;2023-07-28T07:23:39;11.25;;;10.23;;
11222;SDS011;5668;52.012;8.724;2023-07-28T07:26:08;11.07;;;10.20;;
11222;SDS011;5668;52.012;8.724;2023-07-28T07:28:35;11.05;;;10.23;;
11222;SDS011;5668;52.012;8.724;2023-07-28T07:31:03;11.80;;;10.85;;
11222;SDS011;5668;52.012;8.724;2023-07-28T07:33:30;11.07;;;10.27;;
11222;SDS011;5668;52.012;8.724;2023-07-28T07:35:57;12.02;;;11.02;;
11222;SDS011;5668;52.012;8.724;2023-07-28T07:38:24;11.40;;;10.40;;
11222;SDS011;5668;52.012;8.724;2023-07-28T07:40:51;11.77;;;10.77;;
11222;SDS011;5668;52.012;8.724;2023-07-28T07:43:20;11.82;;;10.82;;
11222;SDS011;5668;52.012;8.724;2023-07-28T07:45:47;11.38;;;10.38;;
11222;SDS011;5668;52.012;8.724;2023-07-28T07:48:16;11.32;;;10.32;;
11222;SDS011;5668;52.012;8.724;2023-07-28T07:50:43;11.82;;;10.93;;
11222;SDS011;5668;52.012;8.724;2023-07-28T07:53:10;12.65;;;11.57;;
11222;SDS011;5668;52.012;8.724;2023-07-28T07:55:37;12.68;;;11.50;;
11222;SDS011;5668;52.012;8.724;2023-07-28T07:58:05;13.02;;;11.85;;
11222;SDS011;5668;52.012;8.724;2023-07-28T08:00:33;12.02;;;11.02;;
11222;SDS011;5668;52.012;8.724;2023-07-28T08:03:03;12.32;;;11.27;;
11222;SDS011;5668;52.012;8.724;2023-07-28T08:05:30;11.02;;;10.02;;
11222;SDS011;5668;52.012;8.724;2023-07-28T08:07:59;11.50;;;10.57;;
11222;SDS011;5668;52.012;8.724;2023-07-28T08:10:26;11.65;;;10.75;;
11222;SDS011;5668;52.012;8.724;2023-07-28T08:12:53;11.38;;;10.38;;
11222;SDS011;5668;52.012;8.724;2023-07-28T08:15:21;11.75;;;10.75;;
11222;SDS011;5668;52.012;8.724;2023-07-28T08:17:50;11.70;;;10.70;;
11222;SDS011;5668;52.012;8.724;2023-07-28T08:20:18;11.68;;;10.55;;
11222;SDS011;5668;52.012;8.724;2023-07-28T08:22:45;12.38;;;11.38;;
11222;SDS011;5668;52.012;8.724;2023-07-28T08:25:13;10.98;;;10.07;;
11222;SDS011;5668;52.012;8.724;2023-07-28T08:27:40;11.35;;;10.35;;
11222;SDS011;5668;52.012;8.724;2023-07-28T08:30:08;12.05;;;10.95;;
11222;SDS011;5668;52.012;8.724;2023-07-28T08:32:36;11.38;;;10.48;;
11222;SDS011;5668;52.012;8.724;2023-07-28T08:35:05;10.77;;;9.77;;
11222;SDS011;5668;52.012;8.724;2023-07-28T08:37:33;10.43;;;9.63;;
11222;SDS011;5668;52.012;8.724;2023-07-28T08:40:00;10.85;;;9.85;;
11222;SDS011;5668;52.012;8.724;2023-07-28T08:42:30;9.85;;;9.05;;
11222;SDS011;5668;52.012;8.724;2023-07-28T08:45:01;9.85;;;8.95;;
11222;SDS011;5668;52.012;8.724;2023-07-28T08:47:30;10.20;;;9.38;;
11222;SDS011;5668;52.012;8.724;2023-07-28T08:49:57;9.95;;;9.10;;
11222;SDS011;5668;52.012;8.724;2023-07-28T08:52:26;9.43;;;8.63;;
11222;SDS011;5668;52.012;8.724;2023-07-28T08:54:53;10.20;;;9.35;;
11222;SDS011;5668;52.012;8.724;2023-07-28T08:57:20;10.00;;;9.15;;
11222;SDS011;5668;52.012;8.724;2023-07-28T08:59:48;8.75;;;8.05;;
11222;SDS011;5668;52.012;8.724;2023-07-28T09:02:18;9.20;;;8.43;;
11222;SDS011;5668;52.012;8.724;2023-07-28T09:04:47;8.93;;;8.02;;
11222;SDS011;5668;52.012;8.724;2023-07-28T09:07:15;8.88;;;8.18;;
11222;SDS011;5668;52.012;8.724;2023-07-28T09:09:43;8.93;;;8.23;;
11222;SDS011;5668;52.012;8.724;2023-07-28T09:12:11;9.25;;;8.55;;
11222;SDS011;5668;52.012;8.724;2023-07-28T09:14:38;10.07;;;9.25;;
11222;SDS011;5668;52.012;8.724;2023-07-28T09:17:06;9.60;;;8.90;;
11222;SDS011;5668;52.012;8.724;2023-07-28T09:19:35;9.77;;;8.93;;
11222;SDS011;5668;52.012;8.724;2023-07-28T09:22:17;8.52;;;7.82;;
11222;SDS011;5668;52.012;8.724;2023-07-28T09:24:46;8.73;;;7.90;;
11222;SDS011;5668;52.012;8.724;2023-07-28T09:27:20;7.97;;;7.32;;
11222;SDS011;5668;52.012;8.724;2023-07-28T09:29:49;7.72;;;7.03;;
11222;SDS011;5668;52.012;8.724;2023-07-28T09:32:25;6.85;;;6.35;;
11222;SDS011;5668;52.012;8.724;2023-07-28T09:35:05;6.75;;;6.15;;
11222;SDS011;5668;52.012;8.724;2023-07-28T09:37:39;6.65;;;6.05;;
11222;SDS011;5668;52.012;8.724;2023-07-28T09:40:10;6.25;;;5.78;;
11222;SDS011;5668;52.012;8.724;2023-07-28T09:42:39;6.18;;;5.63;;
11222;SDS011;5668;52.012;8.724;2023-07-28T09:45:07;5.93;;;5.32;;
11222;SDS011;5668;52.012;8.724;2023-07-28T09:47:36;5.40;;;5.00;;
11222;SDS011;5668;52.012;8.724;2023-07-28T09:50:05;5.13;;;4.78;;
11222;SDS011;5668;52.012;8.724;2023-07-28T09:52:39;4.82;;;4.38;;
11222;SDS011;5668;52.012;8.724;2023-07-28T09:55:11;4.53;;;4.13;;
11222;SDS011;5668;52.012;8.724;2023-07-28T09:57:44;4.50;;;4.10;;
11222;SDS011;5668;52.012;8.724;2023-07-28T10:00:14;4.40;;;4.10;;
11222;SDS011;5668;52.012;8.724;2023-07-28T10:02:43;4.70;;;4.30;;
11222;SDS011;5668;52.012;8.724;2023-07-28T10:05:11;4.95;;;4.45;;
11222;SDS011;5668;52.012;8.724;2023-07-28T10:07:40;4.93;;;4.53;;
11222;SDS011;5668;52.012;8.724;2023-07-28T10:10:12;4.38;;;4.07;;
11222;SDS011;5668;52.012;8.724;2023-07-28T10:12:42;4.50;;;4.10;;
11222;SDS011;5668;52.012;8.724;2023-07-28T10:15:13;4.93;;;4.00;;
11222;SDS011;5668;52.012;8.724;2023-07-28T10:17:45;4.45;;;3.90;;
11222;SDS011;5668;52.012;8.724;2023-07-28T10:20:27;4.43;;;4.13;;
11222;SDS011;5668;52.012;8.724;2023-07-28T10:23:01;5.00;;;4.60;;
11222;SDS011;5668;52.012;8.724;2023-07-28T10:25:32;4.53;;;4.22;;
11222;SDS011;5668;52.012;8.724;2023-07-28T10:28:01;5.05;;;4.45;;
11222;SDS011;5668;52.012;8.724;2023-07-28T10:30:34;5.22;;;4.82;;
11222;SDS011;5668;52.012;8.724;2023-07-28T10:33:03;4.80;;;4.40;;
11222;SDS011;5668;52.012;8.724;2023-07-28T10:35:30;4.60;;;4.20;;
11222;SDS011;5668;52.012;8.724;2023-07-28T10:38:03;4.97;;;4.47;;
11222;SDS011;5668;52.012;8.724;2023-07-28T10:41:07;4.80;;;4.30;;
11222;SDS011;5668;52.012;8.724;2023-07-28T10:43:39;6.18;;;4.72;;
11222;SDS011;5668;52.012;8.724;2023-07-28T10:46:08;5.65;;;5.15;;
11222;SDS011;5668;52.012;8.724;2023-07-28T10:48:36;5.47;;;4.97;;
11222;SDS011;5668;52.012;8.724;2023-07-28T10:51:07;5.38;;;4.88;;
11222;SDS011;5668;52.012;8.724;2023-07-28T10:53:36;6.05;;;5.55;;
11222;SDS011;5668;52.012;8.724;2023-07-28T10:56:03;5.53;;;5.03;;
11222;SDS011;5668;52.012;8.724;2023-07-28T10:58:34;5.68;;;5.18;;
11222;SDS011;5668;52.012;8.724;2023-07-28T11:01:02;5.70;;;5.20;;
11222;SDS011;5668;52.012;8.724;2023-07-28T11:03:29;5.55;;;5.05;;
11222;SDS011;5668;52.012;8.724;2023-07-28T11:05:57;5.95;;;5.22;;
11222;SDS011;5668;52.012;8.724;2023-07-28T11:08:24;5.20;;;4.70;;
11222;SDS011;5668;52.012;8.724;2023-07-28T11:10:52;5.28;;;4.78;;
11222;SDS011;5668;52.012;8.724;2023-07-28T11:13:19;6.72;;;4.97;;
11222;SDS011;5668;52.012;8.724;2023-07-28T11:15:50;5.25;;;4.82;;
11222;SDS011;5668;52.012;8.724;2023-07-28T11:18:18;5.60;;;4.72;;
11222;SDS011;5668;52.012;8.724;2023-07-28T11:20:46;5.63;;;5.22;;
11222;SDS011;5668;52.012;8.724;2023-07-28T11:23:13;5.80;;;5.30;;
11222;SDS011;5668;52.012;8.724;2023-07-28T11:25:43;5.93;;;5.43;;
11222;SDS011;5668;52.012;8.724;2023-07-28T11:28:12;6.25;;;5.70;;
11222;SDS011;5668;52.012;8.724;2023-07-28T11:30:39;6.70;;;6.15;;
11222;SDS011;5668;52.012;8.724;2023-07-28T11:33:10;7.10;;;6.50;;
11222;SDS011;5668;52.012;8.724;2023-07-28T11:35:38;8.00;;;7.30;;
11222;SDS011;5668;52.012;8.724;2023-07-28T11:38:06;8.48;;;7.68;;
11222;SDS011;5668;52.012;8.724;2023-07-28T11:40:34;8.90;;;8.20;;
11222;SDS011;5668;52.012;8.724;2023-07-28T11:43:02;10.30;;;9.00;;
11222;SDS011;5668;52.012;8.724;2023-07-28T11:45:30;9.15;;;8.27;;
11222;SDS011;5668;52.012;8.724;2023-07-28T11:47:58;10.23;;;9.30;;
11222;SDS011;5668;52.012;8.724;2023-07-28T11:50:28;9.93;;;9.13;;
11222;SDS011;5668;52.012;8.724;2023-07-28T11:53:00;10.13;;;9.13;;
11222;SDS011;5668;52.012;8.724;2023-07-28T11:55:27;11.30;;;10.18;;
11222;SDS011;5668;52.012;8.724;2023-07-28T11:57:55;11.82;;;10.73;;
11222;SDS011;5668;52.012;8.724;2023-07-28T12:00:24;11.88;;;10.68;;
11222;SDS011;5668;52.012;8.724;2023-07-28T12:03:02;11.35;;;10.35;;
11222;SDS011;5668;52.012;8.724;2023-07-28T12:05:32;11.35;;;10.35;;
11222;SDS011;5668;52.012;8.724;2023-07-28T12:08:00;11.23;;;10.15;;
11222;SDS011;5668;52.012;8.724;2023-07-28T12:10:29;10.70;;;9.80;;
11222;SDS011;5668;52.012;8.724;2023-07-28T12:12:57;10.52;;;9.63;;
11222;SDS011;5668;52.012;8.724;2023-07-28T12:15:29;9.38;;;8.57;;
11222;SDS011;5668;52.012;8.724;2023-07-28T12:18:04;9.93;;;9.02;;
11222;SDS011;5668;52.012;8.724;2023-07-28T12:20:36;10.50;;;9.60;;
11222;SDS011;5668;52.012;8.724;2023-07-28T12:23:04;11.60;;;10.60;;
11222;SDS011;5668;52.012;8.724;2023-07-28T12:25:33;13.35;;;12.05;;
11222;SDS011;5668;52.012;8.724;2023-07-28T12:28:02;14.57;;;13.18;;
11222;SDS011;5668;52.012;8.724;2023-07-28T12:30:30;13.48;;;12.23;;
11222;SDS011;5668;52.012;8.724;2023-07-28T12:32:57;13.98;;;12.63;;
11222;SDS011;5668;52.012;8.724;2023-07-28T12:35:25;13.65;;;12.25;;
11222;SDS011;5668;52.012;8.724;2023-07-28T12:37:58;10.57;;;9.68;;
11222;SDS011;5668;52.012;8.724;2023-07-28T12:40:26;10.65;;;9.65;;
11222;SDS011;5668;52.012;8.724;2023-07-28T12:42:54;11.13;;;10.13;;
11222;SDS011;5668;52.012;8.724;2023-07-28T12:45:21;10.65;;;9.75;;
11222;SDS011;5668;52.012;8.724;2023-07-28T12:47:50;9.32;;;8.63;;
11222;SDS011;5668;52.012;8.724;2023-07-28T12:50:19;9.25;;;8.40;;
11222;SDS011;5668;52.012;8.724;2023-07-28T12:52:47;8.65;;;7.88;;
11222;SDS011;5668;52.012;8.724;2023-07-28T12:55:16;9.07;;;8.18;;
11222;SDS011;5668;52.012;8.724;2023-07-28T12:57:44;8.50;;;7.78;;
11222;SDS011;5668;52.012;8.724;2023-07-28T13:00:13;8.07;;;7.28;;
11222;SDS011;5668;52.012;8.724;2023-07-28T13:02:41;8.30;;;7.50;;
11222;SDS011;5668;52.012;8.724;2023-07-28T13:05:10;7.82;;;7.07;;
11222;SDS011;5668;52.012;8.724;2023-07-28T13:07:38;10.27;;;6.85;;
11222;SDS011;5668;52.012;8.724;2023-07-28T13:10:08;8.07;;;7.38;;
11222;SDS011;5668;52.012;8.724;2023-07-28T13:12:39;7.75;;;7.10;;
11222;SDS011;5668;52.012;8.724;2023-07-28T13:15:06;6.40;;;5.90;;
11222;SDS011;5668;52.012;8.724;2023-07-28T13:17:34;6.85;;;6.25;;
11222;SDS011;5668;52.012;8.724;2023-07-28T13:20:01;5.60;;;5.10;;
11222;SDS011;5668;52.012;8.724;2023-07-28T13:22:29;5.88;;;5.35;;
11222;SDS011;5668;52.012;8.724;2023-07-28T13:24:57;5.63;;;5.18;;
11222;SDS011;5668;52.012;8.724;2023-07-28T13:27:24;5.50;;;5.00;;
11222;SDS011;5668;52.012;8.724;2023-07-28T13:29:52;5.13;;;4.63;;
11222;SDS011;5668;52.012;8.724;2023-07-28T13:32:22;5.10;;;4.60;;
11222;SDS011;5668;52.012;8.724;2023-07-28T13:34:51;4.53;;;4.13;;
11222;SDS011;5668;52.012;8.724;2023-07-28T13:37:18;5.45;;;4.32;;
11222;SDS011;5668;52.012;8.724;2023-07-28T13:39:46;5.25;;;4.70;;
11222;SDS011;5668;52.012;8.724;2023-07-28T13:42:13;5.10;;;4.70;;
11222;SDS011;5668;52.012;8.724;2023-07-28T13:44:41;6.22;;;5.05;;
11222;SDS011;5668;52.012;8.724;2023-07-28T13:47:10;5.35;;;4.85;;
11222;SDS011;5668;52.012;8.724;2023-07-28T13:49:37;5.50;;;5.00;;
11222;SDS011;5668;52.012;8.724;2023-07-28T13:52:05;5.43;;;4.80;;
11222;SDS011;5668;52.012;8.724;2023-07-28T13:54:32;6.60;;;5.90;;
11222;SDS011;5668;52.012;8.724;2023-07-28T13:57:00;6.75;;;5.80;;
11222;SDS011;5668;52.012;8.724;2023-07-28T13:59:27;6.63;;;5.68;;
11222;SDS011;5668;52.012;8.724;2023-07-28T14:01:54;6.88;;;5.68;;
11222;SDS011;5668;52.012;8.724;2023-07-28T14:04:24;6.32;;;5.50;;
11222;SDS011;5668;52.012;8.724;2023-07-28T14:06:51;6.22;;;4.50;;
11222;SDS011;5668;52.012;8.724;2023-07-28T14:09:18;5.03;;;4.63;;
11222;SDS011;5668;52.012;8.724;2023-07-28T14:11:46;4.97;;;4.57;;
11222;SDS011;5668;52.012;8.724;2023-07-28T14:14:13;4.70;;;4.30;;
11222;SDS011;5668;52.012;8.724;2023-07-28T14:16:40;6.18;;;4.80;;
11222;SDS011;5668;52.012;8.724;2023-07-28T14:19:07;5.10;;;4.70;;
11222;SDS011;5668;52.012;8.724;2023-07-28T14:21:36;5.15;;;4.75;;
11222;SDS011;5668;52.012;8.724;2023-07-28T14:24:03;5.00;;;4.70;;
11222;SDS011;5668;52.012;8.724;2023-07-28T14:26:31;4.72;;;4.43;;
11222;SDS011;5668;52.012;8.724;2023-07-28T14:28:58;4.65;;;4.35;;
11222;SDS011;5668;52.012;8.724;2023-07-28T14:31:25;5.63;;;5.13;;
11222;SDS011;5668;52.012;8.724;2023-07-28T14:33:52;4.88;;;4.47;;
11222;SDS011;5668;52.012;8.724;2023-07-28T14:36:20;5.60;;;5.20;;
11222;SDS011;5668;52.012;8.724;2023-07-28T14:38:48;5.35;;;4.93;;
11222;SDS011;5668;52.012;8.724;2023-07-28T14:41:15;5.38;;;4.97;;
11222;SDS011;5668;52.012;8.724;2023-07-28T14:43:43;5.18;;;4.78;;
11222;SDS011;5668;52.012;8.724;2023-07-28T14:46:10;4.85;;;4.45;;
11222;SDS011;5668;52.012;8.724;2023-07-28T14:48:37;5.38;;;4.97;;
11222;SDS011;5668;52.012;8.724;2023-07-28T14:51:05;5.30;;;4.82;;
11222;SDS011;5668;52.012;8.724;2023-07-28T14:53:33;4.80;;;4.43;;
11222;SDS011;5668;52.012;8.724;2023-07-28T14:56:03;5.10;;;4.70;;
11222;SDS011;5668;52.012;8.724;2023-07-28T14:58:31;5.10;;;4.80;;
11222;SDS011;5668;52.012;8.724;2023-07-28T15:00:58;5.00;;;4.70;;
11222;SDS011;5668;52.012;8.724;2023-07-28T15:03:26;4.55;;;4.25;;
11222;SDS011;5668;52.012;8.724;2023-07-28T15:05:55;5.32;;;4.93;;